createdAt,value
2022-10-19T00:01:22.419Z,76.00
2022-10-19T00:05:04.528Z,75.60
2022-10-19T00:08:46.647Z,76.00
2022-10-19T00:12:28.625Z,76.10
2022-10-19T00:16:13.489Z,76.00
2022-10-19T00:19:55.477Z,76.10
2022-10-19T00:23:37.647Z,76.30
2022-10-19T00:27:19.515Z,76.30
2022-10-19T00:31:09.723Z,76.40
2022-10-19T00:34:51.587Z,76.40
2022-10-19T00:38:33.446Z,76.60
2022-10-19T00:42:15.303Z,76.60
2022-10-19T00:45:57.115Z,76.60
2022-10-19T00:49:43.623Z,76.80
2022-10-19T00:53:28.610Z,76.90
2022-10-19T00:57:11.863Z,76.90
2022-10-19T01:00:53.724Z,77.00
2022-10-19T01:04:38.772Z,76.90
2022-10-19T01:08:20.715Z,77.20
2022-10-19T01:12:16.231Z,77.40
2022-10-19T01:16:39.144Z,77.50
2022-10-19T01:20:32.731Z,77.00
2022-10-19T01:24:37.117Z,77.50
2022-10-19T01:28:40.297Z,77.50
2022-10-19T01:32:30.719Z,77.50
2022-10-19T01:36:30.607Z,78.00
2022-10-19T01:40:22.445Z,77.80
2022-10-19T01:44:18.917Z,78.30
2022-10-19T01:48:22.040Z,78.30
2022-10-19T01:52:06.480Z,78.40
2022-10-19T01:55:51.995Z,78.70
2022-10-19T01:59:34.922Z,78.80
2022-10-19T02:03:18.260Z,79.00
2022-10-19T02:07:02.776Z,79.10
2022-10-19T02:10:45.827Z,79.10
2022-10-19T02:14:32.960Z,79.30
2022-10-19T02:18:19.844Z,79.50
2022-10-19T02:22:01.676Z,79.50
2022-10-19T02:25:43.493Z,78.00
2022-10-19T02:29:25.412Z,80.70
2022-10-19T02:33:08.128Z,81.30
2022-10-19T02:36:50.106Z,81.80
2022-10-19T02:40:38.156Z,82.00
2022-10-19T02:44:27.219Z,82.00
2022-10-19T02:48:13.714Z,82.60
2022-10-19T02:51:59.940Z,82.80
2022-10-19T02:55:42.494Z,83.30
2022-10-19T02:59:25.366Z,83.70
2022-10-19T03:03:07.259Z,83.60
2022-10-19T03:06:49.093Z,83.90
2022-10-19T03:10:30.954Z,84.30
2022-10-19T03:14:12.753Z,84.10
2022-10-19T03:17:54.872Z,84.20
2022-10-19T03:21:36.674Z,84.30
2022-10-19T03:25:18.803Z,84.50
2022-10-19T03:29:00.654Z,84.50
2022-10-19T03:32:42.535Z,84.50
2022-10-19T03:36:25.621Z,84.50
2022-10-19T03:40:08.223Z,84.40
2022-10-19T03:43:50.295Z,84.70
2022-10-19T03:47:32.463Z,84.70
2022-10-19T03:51:36.364Z,85.10
2022-10-19T03:55:18.291Z,85.10
2022-10-19T03:59:01.358Z,85.20
2022-10-19T04:02:43.147Z,85.10
2022-10-19T04:06:31.254Z,85.30
2022-10-19T04:10:13.058Z,85.20
2022-10-19T04:13:58.582Z,85.50
2022-10-19T04:17:40.502Z,85.50
2022-10-19T04:21:33.210Z,85.70
2022-10-19T04:25:17.050Z,85.60
2022-10-19T04:29:04.310Z,85.60
2022-10-19T04:32:51.867Z,85.70
2022-10-19T04:36:34.525Z,85.80
2022-10-19T04:40:17.321Z,85.90
2022-10-19T04:44:02.538Z,86.10
2022-10-19T04:47:48.723Z,86.00
2022-10-19T04:51:30.720Z,85.90
2022-10-19T04:55:12.576Z,85.90
2022-10-19T04:58:58.796Z,85.70
2022-10-19T05:02:44.932Z,85.50
2022-10-19T05:06:27.118Z,85.40
2022-10-19T05:10:10.388Z,85.30
2022-10-19T05:13:52.204Z,85.50
2022-10-19T05:17:34.225Z,85.40
2022-10-19T05:21:16.299Z,85.50
2022-10-19T05:24:59.633Z,85.40
2022-10-19T05:28:41.663Z,85.60
2022-10-19T05:32:23.678Z,85.60
2022-10-19T05:36:26.389Z,85.90
2022-10-19T05:40:08.984Z,85.60
2022-10-19T05:43:59.331Z,85.90
2022-10-19T05:47:41.223Z,85.60
2022-10-19T05:51:24.647Z,85.80
2022-10-19T05:55:07.165Z,85.90
2022-10-19T05:58:49.980Z,85.90
2022-10-19T06:02:32.205Z,86.00
2022-10-19T06:06:14.139Z,86.30
2022-10-19T06:09:55.989Z,86.40
2022-10-19T06:13:39.582Z,86.50
2022-10-19T06:17:22.651Z,86.70
2022-10-19T06:21:07.074Z,87.20
2022-10-19T06:24:49.010Z,86.60
2022-10-19T06:28:30.900Z,86.70
2022-10-19T06:32:12.774Z,86.60
2022-10-19T06:35:54.818Z,86.80
2022-10-19T06:39:36.686Z,86.90
2022-10-19T06:43:18.727Z,87.00
2022-10-19T06:47:00.587Z,86.90
2022-10-19T06:50:42.471Z,87.10
2022-10-19T06:54:25.741Z,87.20
2022-10-19T06:58:07.546Z,87.40
2022-10-19T07:01:49.472Z,87.50
2022-10-19T07:05:31.287Z,87.40
2022-10-19T07:17:13.130Z,88.00
2022-10-19T07:20:58.443Z,88.20
2022-10-19T07:24:40.259Z,88.40
2022-10-19T07:28:22.632Z,89.00
2022-10-19T07:32:04.585Z,88.80
2022-10-19T07:35:46.549Z,89.10
2022-10-19T07:39:28.668Z,89.30
2022-10-19T07:43:10.750Z,89.00
2022-10-19T07:46:52.567Z,89.30
2022-10-19T07:50:34.380Z,89.30
2022-10-19T07:54:16.268Z,89.00
2022-10-19T07:58:01.530Z,89.10
2022-10-19T08:01:44.927Z,88.60
2022-10-19T08:05:26.873Z,88.80
2022-10-19T08:09:08.867Z,88.70
2022-10-19T08:12:50.759Z,88.50
2022-10-19T08:16:37.435Z,88.50
2022-10-19T08:20:19.418Z,88.10
2022-10-19T08:24:01.292Z,88.40
2022-10-19T08:27:43.128Z,88.30
2022-10-19T08:31:25.000Z,88.10
2022-10-19T08:35:10.062Z,88.10
2022-10-19T08:38:53.075Z,87.70
2022-10-19T08:42:57.157Z,87.30
2022-10-19T08:46:53.488Z,86.60
2022-10-19T08:50:41.343Z,86.20
2022-10-19T08:54:24.762Z,86.30
2022-10-19T08:58:38.111Z,85.60
2022-10-19T09:02:53.571Z,84.60
2022-10-19T09:06:57.529Z,83.80
2022-10-19T09:10:42.214Z,83.60
2022-10-19T09:14:59.171Z,83.50
2022-10-19T09:18:42.431Z,82.60
2022-10-19T09:22:32.711Z,81.20
2022-10-19T09:26:20.392Z,80.50
2022-10-19T09:30:05.959Z,79.10
2022-10-19T09:33:55.607Z,78.20
2022-10-19T09:37:42.477Z,77.70
2022-10-19T09:41:25.264Z,75.70
2022-10-19T09:45:25.159Z,75.10
2022-10-19T09:49:07.035Z,75.10
2022-10-19T09:52:57.378Z,74.50
2022-10-19T09:56:40.754Z,74.40
2022-10-19T10:00:25.785Z,73.00
2022-10-19T10:04:09.712Z,70.90
2022-10-19T10:07:55.177Z,67.60
2022-10-19T10:11:39.497Z,65.50
2022-10-19T10:15:35.078Z,64.20
2022-10-19T10:19:18.947Z,61.90
2022-10-19T10:23:06.126Z,61.40
2022-10-19T10:27:02.327Z,62.20
2022-10-19T10:30:46.751Z,64.20
2022-10-19T10:34:45.663Z,65.50
2022-10-19T10:38:41.511Z,66.90
2022-10-19T10:42:30.864Z,64.90
2022-10-19T10:46:20.781Z,62.60
2022-10-19T10:50:06.559Z,61.40
2022-10-19T10:53:48.735Z,58.30
2022-10-19T10:57:44.863Z,56.80
2022-10-19T11:01:35.512Z,58.20
2022-10-19T11:05:38.926Z,56.10
2022-10-19T11:09:31.356Z,57.60
2022-10-19T11:13:35.969Z,56.10
2022-10-19T11:17:30.837Z,55.80
2022-10-19T11:21:31.121Z,55.70
2022-10-19T11:25:25.159Z,55.90
2022-10-19T11:29:24.947Z,55.40
2022-10-19T11:33:26.990Z,54.30
2022-10-19T11:37:23.977Z,54.90
2022-10-19T11:41:17.855Z,54.30
2022-10-19T11:45:03.495Z,53.20
2022-10-19T11:48:54.745Z,52.50
2022-10-19T11:52:53.484Z,51.90
2022-10-19T11:57:02.871Z,52.10
2022-10-19T12:01:23.613Z,52.40
2022-10-19T12:05:11.411Z,52.40
2022-10-19T12:09:05.113Z,51.60
2022-10-19T12:12:51.554Z,51.70
2022-10-19T12:16:41.138Z,51.20
2022-10-19T12:20:34.928Z,52.20
2022-10-19T12:24:23.997Z,51.90
2022-10-19T12:28:05.942Z,51.70
2022-10-19T12:31:49.069Z,51.70
2022-10-19T12:35:48.099Z,51.80
2022-10-19T12:39:35.561Z,51.10
2022-10-19T12:43:31.948Z,49.10
2022-10-19T12:47:20.040Z,49.20
2022-10-19T12:51:07.443Z,48.60
2022-10-19T12:54:49.267Z,47.70
2022-10-19T12:58:55.065Z,49.20
2022-10-19T13:02:40.158Z,50.40
2022-10-19T13:06:25.047Z,51.50
2022-10-19T13:10:18.315Z,50.80
2022-10-19T13:14:19.886Z,48.50
2022-10-19T13:18:40.452Z,48.00
2022-10-19T13:22:27.812Z,49.30
2022-10-19T13:26:39.183Z,47.50
2022-10-19T13:30:39.068Z,48.60
2022-10-19T13:34:24.159Z,47.90
2022-10-19T13:38:12.049Z,45.50
2022-10-19T13:41:56.410Z,46.40
2022-10-19T13:45:41.268Z,45.80
2022-10-19T13:49:32.772Z,45.30
2022-10-19T13:53:44.135Z,46.20
2022-10-19T13:57:50.057Z,46.30
2022-10-19T14:02:13.123Z,45.70
2022-10-19T14:06:03.194Z,47.20
2022-10-19T14:10:02.163Z,46.40
2022-10-19T14:13:44.397Z,46.30
2022-10-19T14:17:30.243Z,44.90
2022-10-19T14:21:12.196Z,45.10
2022-10-19T14:25:05.715Z,45.40
2022-10-19T14:28:55.146Z,46.20
2022-10-19T14:32:37.005Z,45.60
2022-10-19T14:36:21.735Z,45.60
2022-10-19T14:40:31.700Z,45.00
2022-10-19T14:44:42.496Z,46.30
2022-10-19T14:48:24.321Z,46.40
2022-10-19T14:52:06.323Z,47.10
2022-10-19T14:55:50.747Z,49.20
2022-10-19T14:59:47.831Z,50.50
2022-10-19T15:03:31.029Z,50.90
2022-10-19T15:07:43.207Z,51.40
2022-10-19T15:11:39.860Z,52.70
2022-10-19T15:15:31.134Z,53.40
2022-10-19T15:19:23.900Z,54.50
2022-10-19T15:23:56.869Z,55.10
2022-10-19T15:27:46.094Z,55.60
2022-10-19T15:31:29.347Z,55.60
2022-10-19T15:35:27.317Z,56.40
2022-10-19T15:39:33.081Z,56.60
2022-10-19T15:43:33.041Z,57.40
2022-10-19T15:47:14.869Z,57.60
2022-10-19T15:50:57.875Z,58.20
2022-10-19T15:54:39.714Z,58.70
2022-10-19T15:58:21.676Z,59.40
2022-10-19T16:02:13.501Z,59.30
2022-10-19T16:05:55.432Z,59.40
2022-10-19T16:09:37.319Z,59.70
2022-10-19T16:13:19.117Z,60.20
2022-10-19T16:17:00.973Z,60.60
2022-10-19T16:20:42.879Z,61.30
2022-10-19T16:24:24.753Z,61.80
2022-10-19T16:28:06.577Z,62.00
2022-10-19T16:31:48.440Z,62.10
2022-10-19T16:35:30.290Z,62.40
2022-10-19T16:39:12.229Z,62.70
2022-10-19T16:42:56.820Z,62.90
2022-10-19T16:46:39.307Z,63.10
2022-10-19T16:50:21.175Z,63.70
2022-10-19T16:54:04.645Z,63.90
2022-10-19T16:57:46.418Z,64.30
2022-10-19T17:01:29.344Z,64.40
2022-10-19T17:05:11.192Z,64.70
2022-10-19T17:12:56.899Z,65.10
2022-10-19T17:16:39.147Z,65.40
2022-10-19T17:20:21.046Z,65.90
2022-10-19T17:24:03.285Z,66.30
2022-10-19T17:27:45.124Z,66.40
2022-10-19T17:31:28.091Z,66.80
2022-10-19T17:35:10.131Z,67.10
2022-10-19T17:38:57.283Z,67.10
2022-10-19T17:42:39.088Z,67.30
2022-10-19T17:46:24.700Z,67.60
2022-10-19T17:50:06.879Z,67.60
2022-10-19T17:53:49.519Z,67.80
2022-10-19T17:57:31.374Z,68.10
2022-10-19T18:01:14.236Z,69.60
2022-10-19T18:04:56.041Z,70.60
2022-10-19T18:08:43.163Z,70.60
2022-10-19T18:12:25.014Z,71.50
2022-10-19T18:16:14.849Z,71.80
2022-10-19T18:19:56.711Z,71.70
2022-10-19T18:23:38.892Z,72.10
2022-10-19T18:27:20.706Z,72.60
2022-10-19T18:31:14.126Z,73.30
2022-10-19T18:34:55.935Z,72.50
2022-10-19T18:38:38.748Z,73.20
2022-10-19T18:42:20.566Z,73.50
2022-10-19T18:46:02.483Z,73.60
2022-10-19T18:49:44.386Z,74.00
2022-10-19T18:53:26.192Z,74.20
2022-10-19T18:57:08.006Z,74.50
2022-10-19T19:00:49.835Z,75.00
2022-10-19T19:04:31.654Z,75.00
2022-10-19T19:08:13.527Z,75.30
2022-10-19T19:11:58.073Z,75.70
2022-10-19T19:15:39.904Z,76.00
2022-10-19T19:19:24.403Z,76.00
2022-10-19T19:23:06.277Z,76.30
2022-10-19T19:26:55.005Z,76.10
2022-10-19T19:30:44.990Z,75.80
2022-10-19T19:34:26.914Z,75.70
2022-10-19T19:38:08.795Z,75.90
2022-10-19T19:41:50.713Z,75.70
2022-10-19T19:45:32.620Z,76.20
2022-10-19T19:49:14.861Z,76.20
2022-10-19T19:53:00.218Z,76.40
2022-10-19T19:56:42.690Z,76.20
2022-10-19T20:00:25.679Z,76.20
2022-10-19T20:04:07.639Z,76.50
2022-10-19T20:07:50.527Z,76.80
2022-10-19T20:11:32.687Z,77.10
2022-10-19T20:15:16.620Z,77.00
2022-10-19T20:19:14.664Z,77.10
2022-10-19T20:22:57.226Z,77.00
2022-10-19T20:26:39.804Z,77.30
2022-10-19T20:30:21.724Z,77.70
2022-10-19T20:34:08.161Z,77.70
2022-10-19T20:37:52.973Z,77.50
2022-10-19T20:41:36.477Z,78.00
2022-10-19T20:45:18.489Z,78.30
2022-10-19T20:49:01.952Z,78.60
2022-10-19T20:52:43.787Z,79.00
2022-10-19T20:56:29.646Z,79.10
2022-10-19T21:00:12.131Z,79.30
2022-10-19T21:03:59.281Z,79.40
2022-10-19T21:07:41.142Z,79.60
2022-10-19T21:11:31.525Z,79.90
2022-10-19T21:15:13.368Z,80.20
2022-10-19T21:18:55.860Z,80.20
2022-10-19T21:22:40.050Z,80.30
2022-10-19T21:26:24.551Z,80.50
2022-10-19T21:30:06.918Z,80.50
2022-10-19T21:33:49.551Z,80.70
2022-10-19T21:37:31.371Z,81.00
2022-10-19T21:41:15.947Z,81.40
2022-10-19T21:45:06.247Z,82.20
2022-10-19T21:48:55.198Z,82.60
2022-10-19T21:52:37.027Z,82.90
2022-10-19T21:56:19.153Z,83.30
2022-10-19T22:00:01.015Z,83.50
2022-10-19T22:03:42.962Z,84.20
2022-10-19T22:07:24.798Z,84.40
2022-10-19T22:11:08.785Z,84.50
2022-10-19T22:14:50.689Z,85.10
2022-10-19T22:18:33.225Z,85.40
2022-10-19T22:22:15.076Z,85.50
2022-10-19T22:25:57.119Z,85.90
2022-10-19T22:29:39.002Z,86.20
2022-10-19T22:33:21.078Z,86.80
2022-10-19T22:37:02.900Z,86.70
2022-10-19T22:41:22.798Z,87.40
2022-10-19T22:45:05.154Z,86.70
2022-10-19T22:48:47.004Z,87.10
2022-10-19T22:52:28.924Z,87.40
2022-10-19T22:56:14.009Z,87.60
2022-10-19T22:59:55.838Z,87.90
2022-10-19T23:03:40.394Z,88.20
2022-10-19T23:07:22.239Z,88.20
2022-10-19T23:11:04.747Z,88.30
2022-10-19T23:14:46.585Z,88.30
2022-10-19T23:18:32.006Z,88.30
2022-10-19T23:22:13.866Z,88.20
2022-10-19T23:26:17.958Z,88.50
2022-10-19T23:29:59.843Z,88.10
2022-10-19T23:33:42.951Z,89.00
2022-10-19T23:37:24.822Z,89.40
2022-10-19T23:41:07.203Z,89.70
2022-10-19T23:44:49.025Z,89.80
2022-10-19T23:48:30.874Z,90.00
2022-10-19T23:52:12.679Z,90.10
2022-10-19T23:56:07.029Z,90.20
2022-10-19T23:59:48.825Z,90.10
